Time;durP1;ratioP1;P1;durP2;ratioP2;P2;SDS_P1;SDS_P2;PMS_P1;PMS_P2;Temp;Humidity;BMP_temperature;BMP_pressure;BME280_temperature;BME280_humidity;BME280_pressure;Samples;Min_cycle;Max_cycle;Signal;HPM_P1;HPM_P2
2023/03/22 00:00:27;;;;;;;0.00;0.00;;;;;;;8.25;92.77;98533.19;4930121;29;20315;-57
2023/03/22 00:02:55;;;;;;;0.00;0.00;;;;;;;8.35;91.84;98533.16;4929026;29;20243;-57
2023/03/22 00:05:25;;;;;;;0.00;0.00;;;;;;;8.35;92.45;98536.59;4931286;29;20243;-57
2023/03/22 00:07:52;;;;;;;0.00;0.00;;;;;;;8.49;92.10;98532.75;4926011;29;20242;-57
2023/03/22 00:10:19;;;;;;;0.00;0.00;;;;;;;8.60;91.26;98533.56;4929152;28;20228;-57
2023/03/22 00:12:46;;;;;;;0.00;0.00;;;;;;;8.77;88.69;98526.81;4912991;29;20750;-57
2023/03/22 00:15:14;;;;;;;0.00;0.00;;;;;;;8.99;87.39;98528.25;4930029;28;20245;-57
2023/03/22 00:17:41;;;;;;;0.00;0.00;;;;;;;9.13;85.21;98519.94;4925978;29;20229;-57
2023/03/22 00:20:08;;;;;;;0.00;0.00;;;;;;;9.19;85.23;98515.13;4921667;29;20333;-57
2023/03/22 00:22:37;;;;;;;0.00;0.00;;;;;;;9.13;85.88;98509.53;4929613;29;20283;-57
2023/03/22 00:25:04;;;;;;;0.00;0.00;;;;;;;9.03;87.03;98505.34;4928253;29;20244;-56
2023/03/22 00:27:31;;;;;;;0.00;0.00;;;;;;;8.92;87.20;98509.75;4929295;29;20248;-57
2023/03/22 00:29:58;;;;;;;0.00;0.00;;;;;;;8.75;88.62;98507.91;4910485;29;20241;-57
2023/03/22 00:32:25;;;;;;;0.00;0.00;;;;;;;8.64;89.74;98499.31;4911153;29;20324;-57
2023/03/22 00:34:52;;;;;;;0.00;0.00;;;;;;;8.69;88.87;98497.09;4910548;29;20262;-57
2023/03/22 00:37:18;;;;;;;0.00;0.00;;;;;;;8.82;88.79;98498.56;4924531;28;20704;-57
2023/03/22 00:39:47;;;;;;;0.00;0.00;;;;;;;8.84;87.50;98497.47;4927930;29;20315;-56
2023/03/22 00:42:13;;;;;;;0.00;0.00;;;;;;;8.83;88.62;98488.03;4930204;29;20245;-57
2023/03/22 00:44:40;;;;;;;0.00;0.00;;;;;;;8.80;88.45;98490.09;4920216;28;20277;-57
2023/03/22 00:47:06;;;;;;;0.00;0.00;;;;;;;8.82;88.29;98485.56;4916925;29;20244;-57
2023/03/22 00:49:34;;;;;;;0.00;0.00;;;;;;;8.83;88.23;98476.78;4926928;29;20728;-56
2023/03/22 00:52:00;;;;;;;0.00;0.00;;;;;;;9.09;84.98;98474.31;4912913;29;20813;-55
2023/03/22 00:54:27;;;;;;;0.00;0.00;;;;;;;9.03;87.46;98467.09;4926530;29;20749;-57
2023/03/22 00:56:55;;;;;;;0.00;0.00;;;;;;;9.11;84.83;98469.00;4915561;29;20790;-57
2023/03/22 00:59:22;;;;;;;0.00;0.00;;;;;;;9.35;83.25;98463.22;4919864;29;20269;-55
2023/03/22 01:01:48;;;;;;;0.00;0.00;;;;;;;9.28;83.73;98459.56;4924846;28;20232;-58
2023/03/22 01:04:16;;;;;;;0.00;0.00;;;;;;;9.40;82.22;98462.78;4917972;29;20238;-57
2023/03/22 01:06:45;;;;;;;0.00;0.00;;;;;;;9.35;81.77;98458.00;4928641;28;20221;-57
2023/03/22 01:09:13;;;;;;;0.00;0.00;;;;;;;9.41;82.12;98448.81;4919190;29;20241;-58
2023/03/22 01:11:40;;;;;;;0.00;0.00;;;;;;;9.49;80.43;98443.69;4920929;29;20607;-55
2023/03/22 01:14:09;;;;;;;0.00;0.00;;;;;;;9.57;80.59;98442.91;4941907;23;20233;-58
2023/03/22 01:16:36;;;;;;;0.00;0.00;;;;;;;9.53;80.99;98442.41;4956100;28;20265;-55
2023/03/22 01:19:03;;;;;;;0.00;0.00;;;;;;;9.24;82.36;98440.81;4939930;28;20324;-57
2023/03/22 01:21:29;;;;;;;0.00;0.00;;;;;;;9.04;83.97;98447.91;4943065;28;20317;-55
2023/03/22 01:23:56;;;;;;;0.00;0.00;;;;;;;8.90;84.05;98444.00;4954361;28;20243;-57
2023/03/22 01:26:23;;;;;;;0.00;0.00;;;;;;;8.96;83.79;98440.84;4970907;28;20226;-56
2023/03/22 01:28:49;;;;;;;0.00;0.00;;;;;;;8.95;83.60;98439.19;4951728;28;20684;-55
2023/03/22 01:31:17;;;;;;;4.17;1.90;;;;;;;9.07;82.22;98431.19;4959240;28;20304;-59
2023/03/22 01:33:44;;;;;;;6.40;2.40;;;;;;;9.04;82.85;98436.69;4960355;28;20256;-59
2023/03/22 01:36:11;;;;;;;4.83;2.33;;;;;;;9.05;82.32;98435.72;4946302;29;20263;-58
2023/03/22 01:38:38;;;;;;;4.20;2.00;;;;;;;8.84;83.91;98424.59;4954238;28;20253;-58
2023/03/22 01:41:05;;;;;;;4.00;2.23;;;;;;;8.63;85.79;98427.41;4951419;28;20589;-58
2023/03/22 01:43:35;;;;;;;5.23;2.07;;;;;;;8.55;86.60;98429.91;4969208;28;20236;-58
2023/03/22 01:46:02;;;;;;;4.13;2.30;;;;;;;8.41;87.97;98425.97;4978827;28;20243;-57
2023/03/22 01:48:35;;;;;;;5.50;2.43;;;;;;;8.36;87.53;98423.81;4966713;28;20323;-58
2023/03/22 01:51:08;;;;;;;3.80;2.10;;;;;;;8.32;88.04;98424.22;4954299;28;20232;-58
2023/03/22 01:53:45;;;;;;;5.53;2.20;;;;;;;8.23;89.04;98415.50;4950072;28;20232;-58
2023/03/22 01:56:12;;;;;;;3.80;2.00;;;;;;;8.23;88.19;98424.09;4955684;28;20240;-58
2023/03/22 01:58:41;;;;;;;4.70;2.23;;;;;;;8.17;88.68;98416.06;4961448;28;20221;-58
2023/03/22 02:01:10;;;;;;;6.20;2.13;;;;;;;8.38;86.30;98415.84;4954196;28;20232;-57
2023/03/22 02:03:52;;;;;;;4.93;2.40;;;;;;;8.44;86.79;98417.88;4948585;28;20237;-58
2023/03/22 02:06:21;;;;;;;6.33;2.10;;;;;;;8.45;86.39;98414.31;4950356;28;20308;-57
2023/03/22 02:08:56;;;;;;;3.93;2.20;;;;;;;8.49;86.12;98414.88;4954490;28;20711;-58
2023/03/22 02:11:30;;;;;;;8.63;2.40;;;;;;;8.50;84.96;98413.91;4950538;28;20231;-58
2023/03/22 02:14:21;;;;;;;8.47;2.43;;;;;;;8.70;84.44;98410.25;4977481;28;20248;-58
2023/03/22 02:17:33;;;;;;;4.03;1.70;;;;;;;8.60;84.15;98414.69;4903293;29;20228;-57
2023/03/22 02:20:41;;;;;;;3.87;1.87;;;;;;;8.44;86.12;98410.06;4917126;29;20236;-57
2023/03/22 02:23:34;;;;;;;5.63;1.97;;;;;;;8.30;86.77;98410.53;4964665;28;20645;-56
2023/03/22 02:26:45;;;;;;;7.93;2.73;;;;;;;8.23;86.32;98411.09;4961107;28;20236;-59
2023/03/22 02:29:18;;;;;;;8.40;2.23;;;;;;;8.20;87.07;98411.38;4937483;28;20642;-58
2023/03/22 02:32:12;;;;;;;7.30;2.40;;;;;;;8.39;85.30;98399.28;4949150;28;20667;-56
2023/03/22 02:35:12;;;;;;;3.30;1.97;;;;;;;8.56;83.33;98398.56;4978531;28;20236;-58
2023/03/22 02:38:20;;;;;;;4.57;2.30;;;;;;;8.70;81.81;98399.06;4948948;28;20228;-54
2023/03/22 02:40:53;;;;;;;4.27;2.23;;;;;;;8.70;82.33;98388.66;4902842;29;20238;-58
2023/03/22 02:43:37;;;;;;;8.63;2.47;;;;;;;8.99;79.81;98393.69;4949595;28;20321;-58
2023/03/22 02:46:09;;;;;;;3.57;1.70;;;;;;;8.84;82.03;98401.19;4952805;28;20235;-56
2023/03/22 02:48:41;;;;;;;6.30;1.97;;;;;;;8.77;81.37;98399.28;4980638;28;20714;-57
2023/03/22 02:51:15;;;;;;;4.07;1.90;;;;;;;8.88;79.99;98401.69;4960100;28;20240;-54
2023/03/22 02:53:48;;;;;;;3.77;2.10;;;;;;;8.85;80.50;98400.22;4966228;28;20587;-57
2023/03/22 02:56:21;;;;;;;3.20;2.07;;;;;;;8.73;82.74;98400.53;4950376;28;20312;-56
2023/03/22 02:58:52;;;;;;;3.73;2.37;;;;;;;8.60;82.85;98406.09;4962440;28;20296;-55
2023/03/22 03:01:22;;;;;;;5.23;2.47;;;;;;;8.42;85.70;98415.44;4967487;28;20239;-57
2023/03/22 03:03:50;;;;;;;4.13;1.77;;;;;;;8.33;86.90;98418.03;4957775;28;20225;-57
2023/03/22 03:06:20;;;;;;;3.83;2.07;;;;;;;8.23;87.84;98416.28;4947174;28;20237;-57
2023/03/22 03:08:50;;;;;;;5.03;1.87;;;;;;;8.18;87.68;98420.28;4942723;28;20248;-57
2023/03/22 03:11:20;;;;;;;5.33;2.50;;;;;;;8.13;87.72;98411.13;4961457;28;20228;-57
2023/03/22 03:13:47;;;;;;;5.33;2.33;;;;;;;8.28;86.25;98415.88;4944652;28;20691;-57
2023/03/22 03:16:16;;;;;;;4.47;2.20;;;;;;;8.19;86.92;98407.13;4950963;28;20759;-54
2023/03/22 03:18:50;;;;;;;2.47;1.80;;;;;;;8.17;87.60;98400.44;4948567;28;20232;-56
2023/03/22 03:21:31;;;;;;;4.63;2.27;;;;;;;8.26;86.88;98402.19;4969167;28;20768;-55
2023/03/22 03:24:13;;;;;;;4.67;1.90;;;;;;;8.13;88.31;98390.34;4959276;28;20232;-54
2023/03/22 03:26:53;;;;;;;6.03;2.30;;;;;;;8.25;88.13;98384.97;4950241;28;20229;-57
2023/03/22 03:29:23;;;;;;;7.20;2.43;;;;;;;8.31;87.37;98386.16;4951192;28;20417;-57
2023/03/22 03:31:56;;;;;;;4.37;2.23;;;;;;;8.41;86.57;98384.34;4959886;28;20239;-57
2023/03/22 03:34:29;;;;;;;7.17;2.60;;;;;;;8.53;85.57;98380.63;4956915;28;20232;-57
2023/03/22 03:37:00;;;;;;;4.43;2.43;;;;;;;8.60;84.08;98375.66;4953590;28;20231;-57
2023/03/22 03:39:30;;;;;;;3.70;2.27;;;;;;;8.84;82.88;98374.31;4953689;28;20241;-57
2023/03/22 03:42:00;;;;;;;4.00;2.23;;;;;;;8.75;83.39;98383.00;4958551;28;20243;-57
2023/03/22 03:44:30;;;;;;;6.50;2.00;;;;;;;8.77;82.98;98388.88;4949747;28;20649;-57
2023/03/22 03:46:58;;;;;;;6.10;2.63;;;;;;;8.74;82.45;98381.34;4956344;28;20237;-57
2023/03/22 03:49:26;;;;;;;5.60;2.00;;;;;;;8.77;81.72;98373.25;4980399;28;20240;-57
2023/03/22 03:51:54;;;;;;;3.03;1.60;;;;;;;8.70;82.67;98381.66;4962473;28;20328;-57
2023/03/22 03:54:22;;;;;;;4.53;1.87;;;;;;;8.56;83.96;98389.91;4960310;28;20624;-57
2023/03/22 03:56:49;;;;;;;5.83;1.70;;;;;;;8.39;85.09;98383.66;4953299;28;20258;-57
2023/03/22 03:59:19;;;;;;;4.37;1.93;;;;;;;8.37;85.77;98391.63;4956637;28;20311;-57
2023/03/22 04:01:50;;;;;;;7.20;2.23;;;;;;;8.31;85.24;98380.97;4963308;28;20666;-56
2023/03/22 04:04:25;;;;;;;3.00;1.90;;;;;;;8.32;82.76;98393.84;4958833;28;20645;-57
2023/03/22 04:07:00;;;;;;;4.17;1.97;;;;;;;8.33;84.25;98392.88;4962431;28;20239;-57
2023/03/22 04:09:31;;;;;;;4.17;1.90;;;;;;;8.23;84.65;98386.88;4958795;28;20233;-57
2023/03/22 04:12:05;;;;;;;3.87;1.90;;;;;;;8.12;86.26;98386.09;4959393;28;20772;-57
2023/03/22 04:14:33;;;;;;;3.80;2.00;;;;;;;8.06;86.14;98393.63;4942769;28;20683;-57
2023/03/22 04:17:06;;;;;;;4.00;1.50;;;;;;;8.02;86.63;98392.25;4954026;28;20231;-57
2023/03/22 04:19:33;;;;;;;2.37;1.33;;;;;;;8.07;84.62;98382.25;4955608;28;20232;-57
2023/03/22 04:22:00;;;;;;;3.83;1.70;;;;;;;8.15;83.83;98394.56;4978063;28;20308;-57
2023/03/22 04:24:27;;;;;;;4.03;1.47;;;;;;;8.18;82.03;98392.50;4950434;28;20240;-57
2023/03/22 04:26:54;;;;;;;5.20;1.97;;;;;;;8.25;83.05;98392.75;4939529;28;20247;-57
2023/03/22 04:29:21;;;;;;;4.40;1.60;;;;;;;8.16;84.26;98381.41;4956705;28;20707;-57
2023/03/22 04:31:53;;;;;;;4.73;1.63;;;;;;;8.17;83.85;98388.25;5141164;23;20236;-56
2023/03/22 04:34:23;;;;;;;4.70;1.60;;;;;;;8.50;79.90;98388.72;4925615;29;20242;-51
2023/03/22 04:36:54;;;;;;;3.40;1.40;;;;;;;8.46;80.34;98382.13;4906646;29;20249;-53
2023/03/22 04:39:26;;;;;;;2.87;1.70;;;;;;;8.46;80.03;98381.34;4927493;29;20312;-55
2023/03/22 04:42:17;;;;;;;5.10;1.90;;;;;;;8.40;81.63;98380.09;4927824;29;20311;-55
2023/03/22 04:44:45;;;;;;;2.97;1.80;;;;;;;8.34;82.29;98380.69;4908861;29;20646;-53
2023/03/22 04:47:13;;;;;;;4.57;1.53;;;;;;;8.26;82.19;98378.81;4929500;29;20259;-55
2023/03/22 04:49:40;;;;;;;2.97;1.30;;;;;;;8.40;82.04;98374.91;4926320;29;20230;-55
2023/03/22 04:52:07;;;;;;;2.80;1.67;;;;;;;8.31;83.18;98375.75;4911585;29;20241;-55
2023/03/22 04:54:35;;;;;;;2.50;1.57;;;;;;;8.34;82.99;98367.69;4928430;29;20238;-54
2023/03/22 04:57:02;;;;;;;4.27;1.43;;;;;;;8.24;83.60;98359.91;4926664;29;20266;-52
2023/03/22 04:59:34;;;;;;;6.53;1.70;;;;;;;8.17;85.30;98357.06;4928455;29;20260;-54
2023/03/22 05:02:01;;;;;;;2.67;1.50;;;;;;;8.23;85.46;98366.88;4910920;29;20244;-53
2023/03/22 05:04:34;;;;;;;5.60;2.00;;;;;;;8.24;85.96;98362.53;4927364;29;20237;-55
2023/03/22 05:07:10;;;;;;;2.77;1.50;;;;;;;8.16;86.24;98362.41;4927131;29;20684;-52
2023/03/22 05:09:46;;;;;;;5.13;1.70;;;;;;;8.01;86.70;98357.66;4916156;29;20248;-54
2023/03/22 05:12:14;;;;;;;4.77;1.57;;;;;;;8.12;86.05;98348.84;4928568;29;20248;-53
2023/03/22 05:14:59;;;;;;;4.10;1.77;;;;;;;8.12;86.26;98357.50;4925924;29;20325;-55
2023/03/22 05:17:31;;;;;;;2.33;1.40;;;;;;;8.09;86.31;98359.53;4927795;29;20292;-53
2023/03/22 05:20:08;;;;;;;2.53;1.33;;;;;;;8.12;86.87;98364.47;4910906;29;20240;-51
2023/03/22 05:22:39;;;;;;;2.00;1.20;;;;;;;8.23;85.68;98363.47;4927154;29;20233;-53
2023/03/22 05:25:07;;;;;;;2.43;1.20;;;;;;;8.23;85.87;98360.88;4926095;29;20238;-54
2023/03/22 05:27:37;;;;;;;2.03;1.20;;;;;;;8.31;85.61;98366.19;4928521;29;20231;-52
2023/03/22 05:30:36;;;;;;;3.40;1.13;;;;;;;8.43;84.79;98372.03;4881257;29;20237;-52
2023/03/22 05:33:20;;;;;;;4.07;1.03;;;;;;;8.59;83.59;98374.03;4898566;29;20228;-52
2023/03/22 05:35:49;;;;;;;2.47;1.43;;;;;;;8.69;82.85;98367.00;4925099;29;20323;-53
2023/03/22 05:38:17;;;;;;;15.17;8.70;;;;;;;8.79;81.37;98372.16;4912130;29;20233;-52
2023/03/22 05:40:49;;;;;;;6.10;2.90;;;;;;;8.89;81.07;98369.50;4909842;29;20245;-52
2023/03/22 05:43:15;;;;;;;3.63;1.80;;;;;;;8.94;80.97;98384.69;4929040;29;20233;-53
2023/03/22 05:45:47;;;;;;;5.20;1.80;;;;;;;8.68;82.85;98382.75;4925145;29;20682;-53
2023/03/22 05:48:43;;;;;;;2.80;1.80;;;;;;;8.52;84.38;98385.97;4891182;29;20225;-52
2023/03/22 05:51:16;;;;;;;3.90;1.80;;;;;;;8.35;83.88;98385.75;4927472;29;20236;-54
2023/03/22 05:53:44;;;;;;;3.47;1.90;;;;;;;8.37;84.38;98385.59;4925159;29;20235;-55
2023/03/22 05:56:15;;;;;;;3.73;2.00;;;;;;;8.29;85.49;98381.13;4912098;29;20247;-51
2023/03/22 05:58:45;;;;;;;3.60;2.20;;;;;;;8.19;86.20;98381.13;4902408;29;20249;-54
2023/03/22 06:01:15;;;;;;;6.17;2.77;;;;;;;8.19;86.05;98375.94;4911492;29;20614;-55
2023/03/22 06:04:02;;;;;;;5.77;2.67;;;;;;;8.42;85.33;98379.03;4925812;29;20709;-52
2023/03/22 06:06:41;;;;;;;6.90;4.07;;;;;;;8.31;86.01;98381.78;4925003;29;20233;-53
2023/03/22 06:09:14;;;;;;;5.13;1.83;;;;;;;8.39;84.75;98378.47;4912356;29;20237;-54
2023/03/22 06:11:41;;;;;;;2.10;1.83;;;;;;;8.57;83.28;98382.00;4914193;29;20312;-53
2023/03/22 06:14:08;;;;;;;3.23;1.80;;;;;;;8.78;83.21;98377.50;4901108;29;20757;-53
2023/03/22 06:17:04;;;;;;;3.53;2.10;;;;;;;9.00;81.07;98379.69;4858490;29;20627;-52
2023/03/22 06:19:31;;;;;;;3.67;2.00;;;;;;;9.14;81.03;98378.38;4917030;29;20761;-51
2023/03/22 06:22:02;;;;;;;4.60;1.95;;;;;;;9.28;79.94;98378.81;4924205;29;20933;-55
2023/03/22 06:24:31;;;;;;;2.13;1.20;;;;;;;9.44;78.10;98384.19;4912547;29;20245;-58
2023/03/22 06:26:57;;;;;;;2.77;1.40;;;;;;;9.48;78.36;98383.88;4925026;29;20246;-52
2023/03/22 06:29:24;;;;;;;2.43;1.40;;;;;;;9.60;77.01;98385.28;4926757;29;20241;-53
2023/03/22 06:31:54;;;;;;;3.30;1.30;;;;;;;9.71;77.45;98385.06;4924563;29;20288;-56
2023/03/22 06:34:20;;;;;;;4.20;1.10;;;;;;;9.73;76.47;98379.69;4902254;29;20238;-52
2023/03/22 06:36:47;;;;;;;2.00;1.20;;;;;;;9.82;75.70;98381.38;4925638;29;20693;-52
2023/03/22 06:39:23;;;;;;;2.23;1.00;;;;;;;9.93;75.19;98380.34;4927090;29;20253;-55
2023/03/22 06:41:50;;;;;;;2.27;0.63;;;;;;;9.98;75.60;98380.69;4925930;29;20686;-54
2023/03/22 06:44:18;;;;;;;1.77;1.10;;;;;;;10.03;74.48;98381.06;4910634;29;20559;-54
2023/03/22 06:46:50;;;;;;;3.23;1.10;;;;;;;10.07;75.18;98384.16;4926076;29;20719;-54
2023/03/22 06:49:30;;;;;;;1.33;0.70;;;;;;;10.25;74.69;98383.28;4926803;29;20656;-53
2023/03/22 06:51:59;;;;;;;2.13;1.00;;;;;;;10.42;73.56;98385.03;4925113;29;20738;-52
2023/03/22 06:54:29;;;;;;;0.90;0.70;;;;;;;10.54;72.13;98390.78;4911984;29;20234;-52
2023/03/22 06:56:55;;;;;;;1.83;1.10;;;;;;;10.60;73.34;98384.94;4908899;29;20316;-55
2023/03/22 06:59:22;;;;;;;1.47;1.00;;;;;;;10.72;72.73;98382.06;4926958;29;20246;-55
2023/03/22 07:01:49;;;;;;;2.40;1.05;;;;;;;10.89;71.54;98395.97;4923679;29;20980;-52
2023/03/22 07:04:16;;;;;;;6.93;4.27;;;;;;;11.06;71.93;98405.50;4925932;29;20230;-54
2023/03/22 07:06:45;;;;;;;1.90;1.30;;;;;;;11.30;69.25;98401.31;4924110;29;20240;-53
2023/03/22 07:09:15;;;;;;;2.33;1.43;;;;;;;11.54;69.34;98410.16;4917493;29;20233;-56
2023/03/22 07:11:43;;;;;;;3.87;1.80;;;;;;;11.79;68.79;98416.22;4923977;29;20281;-52
2023/03/22 07:14:10;;;;;;;3.10;0.90;;;;;;;11.95;66.82;98420.59;4900678;29;20230;-55
2023/03/22 07:16:59;;;;;;;2.23;1.00;;;;;;;12.06;66.77;98418.66;4923987;29;20397;-55
2023/03/22 07:19:28;;;;;;;3.37;1.57;;;;;;;12.09;66.46;98429.63;4925895;29;20313;-53
2023/03/22 07:21:55;;;;;;;4.37;1.50;;;;;;;12.10;67.17;98420.78;4924767;29;20655;-54
2023/03/22 07:24:23;;;;;;;2.23;0.97;;;;;;;12.33;66.66;98421.91;4925989;29;20321;-55
2023/03/22 07:26:51;;;;;;;3.13;0.97;;;;;;;12.37;66.14;98417.97;4923783;29;20701;-52
2023/03/22 07:29:22;;;;;;;5.50;1.80;;;;;;;12.36;66.33;98421.56;4919230;29;20223;-54
2023/03/22 07:31:49;;;;;;;2.37;1.10;;;;;;;12.48;67.50;98411.53;4908819;29;20277;-55
2023/03/22 07:34:22;;;;;;;2.30;1.10;;;;;;;12.57;66.27;98422.81;4914251;29;20298;-56
2023/03/22 07:37:01;;;;;;;2.80;2.00;;;;;;;12.70;64.75;98413.44;4924024;29;20246;-53
2023/03/22 07:39:29;;;;;;;2.47;1.40;;;;;;;12.77;64.80;98415.38;4909651;29;20765;-56
2023/03/22 07:41:58;;;;;;;4.23;2.00;;;;;;;12.85;64.32;98416.13;4924483;29;20696;-55
2023/03/22 07:44:25;;;;;;;2.50;1.93;;;;;;;12.89;64.02;98424.50;4925614;29;20240;-54
2023/03/22 07:47:10;;;;;;;1.70;1.00;;;;;;;13.04;62.38;98419.31;4925416;29;20238;-55
2023/03/22 07:49:46;;;;;;;1.63;1.20;;;;;;;12.80;64.56;98426.31;4910109;29;20234;-56
2023/03/22 07:52:15;;;;;;;2.17;1.07;;;;;;;12.98;65.30;98423.47;4907828;29;20232;-54
2023/03/22 07:54:42;;;;;;;2.20;1.20;;;;;;;13.12;64.85;98428.97;4922919;29;20278;-55
2023/03/22 07:57:10;;;;;;;1.83;1.13;;;;;;;13.34;64.20;98434.38;4926364;29;20325;-55
2023/03/22 07:59:43;;;;;;;2.07;1.37;;;;;;;13.55;63.87;98434.59;4900969;29;20299;-53
2023/03/22 08:02:10;;;;;;;1.20;0.80;;;;;;;13.60;61.37;98426.25;4926128;29;20237;-56
2023/03/22 08:04:42;;;;;;;2.43;0.80;;;;;;;13.55;62.27;98425.94;4907540;29;20310;-56
2023/03/22 08:07:25;;;;;;;2.80;2.20;;;;;;;13.53;62.27;98425.31;4924192;29;20235;-56
2023/03/22 08:09:52;;;;;;;1.90;1.23;;;;;;;13.42;61.88;98429.13;4923874;29;20231;-55
2023/03/22 08:12:20;;;;;;;3.50;1.67;;;;;;;13.34;63.00;98432.59;4926207;29;20242;-56
2023/03/22 08:14:53;;;;;;;3.93;1.57;;;;;;;13.39;63.96;98440.75;4924530;29;20235;-52
2023/03/22 08:17:26;;;;;;;3.00;1.60;;;;;;;13.54;63.51;98427.75;4912641;29;20320;-54
2023/03/22 08:19:54;;;;;;;2.77;1.10;;;;;;;13.69;60.84;98433.06;4927078;29;20232;-53
2023/03/22 08:22:28;;;;;;;3.60;1.30;;;;;;;13.62;62.48;98426.03;4914292;29;20239;-53
2023/03/22 08:25:15;;;;;;;1.70;1.33;;;;;;;13.56;63.09;98428.38;4929405;29;20239;-56
2023/03/22 08:27:44;;;;;;;3.43;1.40;;;;;;;13.63;62.01;98422.44;4905301;29;20273;-56
2023/03/22 08:30:12;;;;;;;4.60;1.83;;;;;;;13.74;61.78;98422.03;4914254;29;20608;-52
2023/03/22 08:32:39;;;;;;;8.07;3.30;;;;;;;13.79;61.46;98424.09;4903382;29;20231;-53
2023/03/22 08:35:09;;;;;;;3.80;1.20;;;;;;;13.87;61.76;98426.66;4913849;29;20248;-56
2023/03/22 08:37:35;;;;;;;1.83;1.27;;;;;;;13.97;60.53;98431.69;4928797;29;20794;-56
2023/03/22 08:40:07;;;;;;;1.97;0.87;;;;;;;13.86;60.08;98415.38;4927249;29;20240;-57
2023/03/22 08:42:41;;;;;;;2.33;1.10;;;;;;;13.94;61.56;98424.97;4902008;29;20230;-56
2023/03/22 08:45:10;;;;;;;3.73;1.13;;;;;;;13.83;62.10;98418.34;4913957;29;20249;-55
2023/03/22 08:47:43;;;;;;;3.57;1.10;;;;;;;14.13;61.24;98409.69;4926886;29;20238;-53
2023/03/22 08:50:10;;;;;;;2.40;1.10;;;;;;;14.25;61.43;98412.72;4929686;29;20254;-54
2023/03/22 08:52:48;;;;;;;2.90;1.30;;;;;;;14.29;61.34;98424.50;4926743;29;20261;-56
2023/03/22 08:55:36;;;;;;;2.60;1.17;;;;;;;14.49;58.99;98422.13;4914987;29;20836;-53
2023/03/22 08:58:11;;;;;;;4.00;3.57;;;;;;;14.35;60.51;98418.50;4928340;29;20238;-57
2023/03/22 09:00:51;;;;;;;1.70;1.20;;;;;;;14.34;59.58;98410.81;4926598;29;20240;-53
2023/03/22 09:03:40;;;;;;;3.80;1.23;;;;;;;14.40;59.81;98415.34;4901455;29;20244;-53
2023/03/22 09:06:08;;;;;;;1.97;1.17;;;;;;;14.47;59.78;98414.44;4915545;29;20307;-54
2023/03/22 09:08:38;;;;;;;4.77;1.43;;;;;;;14.29;60.06;98411.38;4927512;29;20229;-56
2023/03/22 09:11:10;;;;;;;1.73;0.97;;;;;;;14.00;59.83;98395.38;4922219;29;20722;-56
2023/03/22 09:13:37;;;;;;;2.37;1.10;;;;;;;14.00;59.95;98416.38;4927740;29;20228;-54
2023/03/22 09:16:07;;;;;;;3.33;1.07;;;;;;;13.91;62.71;98409.56;4911003;29;20236;-55
2023/03/22 09:18:36;;;;;;;2.23;1.30;;;;;;;13.87;60.66;98401.25;4919943;29;20230;-54
2023/03/22 09:21:10;;;;;;;3.10;1.33;;;;;;;13.88;60.66;98397.63;4927183;29;20442;-56
2023/03/22 09:24:00;;;;;;;3.53;1.30;;;;;;;14.03;61.21;98395.03;4905810;29;20245;-55
2023/03/22 09:26:37;;;;;;;2.40;1.20;;;;;;;14.23;61.35;98394.50;4923264;29;20312;-58
2023/03/22 09:29:05;;;;;;;2.60;1.20;;;;;;;14.30;60.51;98400.66;4910302;29;20229;-54
2023/03/22 09:31:34;;;;;;;3.13;1.30;;;;;;;14.23;61.02;98393.72;4925812;29;20639;-57
2023/03/22 09:34:16;;;;;;;1.97;1.23;;;;;;;14.34;60.87;98389.81;4909492;29;20634;-56
2023/03/22 09:36:43;;;;;;;2.80;1.20;;;;;;;14.44;61.49;98387.72;4910163;29;20225;-55
2023/03/22 09:39:11;;;;;;;2.33;1.23;;;;;;;14.40;61.57;98389.09;4911628;29;20232;-55
2023/03/22 09:41:44;;;;;;;3.07;1.37;;;;;;;14.42;61.79;98366.09;4924436;29;20680;-57
2023/03/22 09:44:17;;;;;;;5.07;1.30;;;;;;;14.61;60.46;98380.47;4913558;29;20241;-54
2023/03/22 09:46:48;;;;;;;3.37;1.30;;;;;;;14.78;59.31;98369.78;4925992;29;20256;-57
2023/03/22 09:49:19;;;;;;;2.13;1.10;;;;;;;14.87;58.51;98380.00;4929979;29;20247;-57
2023/03/22 09:51:48;;;;;;;2.70;1.30;;;;;;;14.71;58.70;98373.16;4926728;29;20248;-55
2023/03/22 09:54:19;;;;;;;3.00;1.40;;;;;;;14.74;57.92;98375.41;4929070;29;20236;-58
2023/03/22 09:56:50;;;;;;;1.60;0.97;;;;;;;14.62;59.68;98382.09;4924944;29;20244;-58
2023/03/22 09:59:25;;;;;;;2.27;0.97;;;;;;;14.72;58.95;98387.09;4929044;29;20236;-58
2023/03/22 10:01:58;;;;;;;1.47;1.03;;;;;;;14.70;58.19;98389.91;4925118;29;20230;-55
2023/03/22 10:04:38;;;;;;;1.27;0.93;;;;;;;14.69;56.86;98366.44;4927788;29;20244;-53
2023/03/22 10:07:27;;;;;;;2.07;0.90;;;;;;;14.86;56.70;98373.09;4925594;29;20690;-56
2023/03/22 10:10:05;;;;;;;1.93;0.77;;;;;;;14.84;56.64;98363.78;4924322;29;20709;-54
2023/03/22 10:12:37;;;;;;;2.17;1.03;;;;;;;15.01;57.64;98367.00;4926880;29;20292;-53
2023/03/22 10:15:10;;;;;;;1.20;0.70;;;;;;;15.09;55.62;98369.50;4926139;29;20237;-55
2023/03/22 10:17:39;;;;;;;0.70;0.70;;;;;;;15.13;54.96;98360.25;4928611;29;20237;-53
2023/03/22 10:20:17;;;;;;;1.20;0.80;;;;;;;15.22;54.15;98371.47;4927137;29;20246;-55
2023/03/22 10:22:46;;;;;;;2.67;0.80;;;;;;;15.33;54.66;98357.00;4925926;29;24593;-54
2023/03/22 10:25:24;;;;;;;3.90;0.80;;;;;;;15.48;53.72;98357.75;4929163;29;20295;-53
2023/03/22 10:27:52;;;;;;;1.57;0.93;;;;;;;15.44;54.48;98364.41;4926032;29;20693;-53
2023/03/22 10:30:21;;;;;;;1.30;0.90;;;;;;;15.45;52.57;98362.56;4928799;29;20244;-53
2023/03/22 10:32:55;;;;;;;1.47;0.73;;;;;;;15.58;54.02;98364.50;4925514;29;20882;-53
2023/03/22 10:35:24;;;;;;;1.43;0.70;;;;;;;15.65;52.25;98370.66;4928234;29;20241;-52
2023/03/22 10:37:52;;;;;;;1.50;0.80;;;;;;;15.59;51.93;98355.63;4925968;29;20233;-54
2023/03/22 10:40:24;;;;;;;1.30;1.00;;;;;;;15.58;52.12;98367.16;4928757;29;20307;-52
2023/03/22 10:42:53;;;;;;;3.00;0.90;;;;;;;15.64;51.43;98358.50;4925588;29;20604;-54
2023/03/22 10:45:22;;;;;;;0.93;0.80;;;;;;;15.75;53.01;98355.34;4928435;29;20233;-55
2023/03/22 10:47:58;;;;;;;2.63;1.17;;;;;;;15.94;51.40;98353.06;4925907;29;20234;-54
2023/03/22 10:50:30;;;;;;;2.70;1.17;;;;;;;16.00;52.02;98352.28;4927415;29;20236;-52
2023/03/22 10:53:01;;;;;;;1.37;0.67;;;;;;;16.02;51.03;98338.94;4925728;29;20235;-54
2023/03/22 10:55:30;;;;;;;0.80;0.60;;;;;;;16.08;51.43;98354.78;4926579;29;20249;-54
2023/03/22 10:58:10;;;;;;;1.33;0.80;;;;;;;16.02;52.96;98345.00;4925701;29;20288;-55
2023/03/22 11:00:37;;;;;;;2.80;0.80;;;;;;;16.02;50.21;98336.31;4926223;29;20282;-52
2023/03/22 11:03:06;;;;;;;1.37;0.70;;;;;;;16.05;50.66;98339.34;4926423;29;20234;-54
2023/03/22 11:05:33;;;;;;;1.00;0.70;;;;;;;16.17;50.09;98330.91;4926773;29;20720;-55
2023/03/22 11:08:03;;;;;;;3.97;1.00;;;;;;;15.88;49.92;98330.97;4925545;29;20226;-55
2023/03/22 11:10:31;;;;;;;0.97;0.70;;;;;;;16.08;49.86;98336.34;4927535;29;20233;-55
2023/03/22 11:13:13;;;;;;;0.93;0.70;;;;;;;16.26;51.26;98335.03;4925369;29;20736;-54
2023/03/22 11:15:49;;;;;;;1.57;0.80;;;;;;;16.25;49.25;98335.22;4924341;29;20767;-53
2023/03/22 11:18:18;;;;;;;3.70;1.00;;;;;;;16.19;49.12;98340.25;4927650;29;20239;-52
2023/03/22 11:20:56;;;;;;;1.93;0.90;;;;;;;15.90;50.03;98326.31;4924944;29;20239;-55
2023/03/22 11:23:24;;;;;;;1.43;0.90;;;;;;;16.09;50.16;98329.28;4927554;29;20443;-53
2023/03/22 11:25:55;;;;;;;1.93;1.03;;;;;;;16.06;49.39;98324.38;4924929;29;20242;-55
2023/03/22 11:28:26;;;;;;;1.67;0.90;;;;;;;16.22;50.98;98339.88;4927356;29;20235;-52
2023/03/22 11:31:09;;;;;;;1.73;0.80;;;;;;;16.25;50.11;98328.13;4925249;29;20629;-55
2023/03/22 11:33:37;;;;;;;2.57;0.80;;;;;;;16.27;49.81;98335.84;4926176;29;20241;-54
2023/03/22 11:36:16;;;;;;;4.63;0.80;;;;;;;16.53;50.74;98319.34;4925821;29;20889;-53
2023/03/22 11:38:43;;;;;;;2.53;0.70;;;;;;;16.65;49.97;98323.03;4924770;29;20225;-56
2023/03/22 11:41:19;;;;;;;1.57;0.80;;;;;;;16.63;49.21;98316.31;4927483;29;20362;-54
2023/03/22 11:43:48;;;;;;;2.23;1.00;;;;;;;16.75;48.34;98322.66;4923844;29;20250;-55
2023/03/22 11:46:18;;;;;;;1.80;0.90;;;;;;;16.43;48.32;98319.69;4926152;29;20765;-56
2023/03/22 11:48:50;;;;;;;4.03;0.90;;;;;;;16.45;49.25;98314.25;4924096;29;20324;-54
2023/03/22 11:51:26;;;;;;;2.33;0.93;;;;;;;16.44;48.90;98315.25;4926682;29;20230;-55
2023/03/22 11:53:56;;;;;;;2.30;1.03;;;;;;;16.44;49.40;98309.97;4924918;29;20246;-55
2023/03/22 11:56:29;;;;;;;1.87;1.00;;;;;;;16.54;50.53;98320.97;4926217;29;20318;-54
2023/03/22 11:58:59;;;;;;;2.20;1.17;;;;;;;16.51;48.41;98301.09;4925180;29;20237;-53
2023/03/22 12:01:36;;;;;;;1.70;1.00;;;;;;;16.72;49.25;98299.31;4926024;29;20250;-51